sensor_id;sensor_type;location;lat;lon;timestamp;pressure;altitude;pressure_sealevel;temperature;humidity
28927;BME280;16038;47.692;9.400;2023-08-24T00:01:15;96807.75;;;23.81;73.22
28927;BME280;16038;47.692;9.400;2023-08-24T00:03:43;96800.69;;;23.77;74.22
28927;BME280;16038;47.692;9.400;2023-08-24T00:06:09;96798.28;;;23.66;74.74
28927;BME280;16038;47.692;9.400;2023-08-24T00:08:35;96792.47;;;23.60;75.50
28927;BME280;16038;47.692;9.400;2023-08-24T00:11:01;96789.13;;;23.53;75.86
28927;BME280;16038;47.692;9.400;2023-08-24T00:13:27;96794.19;;;23.45;76.45
28927;BME280;16038;47.692;9.400;2023-08-24T00:15:53;96792.63;;;23.44;76.67
28927;BME280;16038;47.692;9.400;2023-08-24T00:18:19;96788.59;;;23.45;76.90
28927;BME280;16038;47.692;9.400;2023-08-24T00:20:48;96785.25;;;23.50;76.35
28927;BME280;16038;47.692;9.400;2023-08-24T00:23:13;96780.78;;;23.40;77.42
28927;BME280;16038;47.692;9.400;2023-08-24T00:25:38;96789.94;;;23.40;77.35
28927;BME280;16038;47.692;9.400;2023-08-24T00:28:06;96786.72;;;23.29;78.35
28927;BME280;16038;47.692;9.400;2023-08-24T00:30:32;96787.72;;;23.35;77.96
28927;BME280;16038;47.692;9.400;2023-08-24T00:32:57;96789.19;;;23.27;78.84
28927;BME280;16038;47.692;9.400;2023-08-24T00:35:22;96784.50;;;23.24;79.03
28927;BME280;16038;47.692;9.400;2023-08-24T00:37:48;96779.81;;;23.21;79.04
28927;BME280;16038;47.692;9.400;2023-08-24T00:40:13;96778.69;;;23.18;79.39
28927;BME280;16038;47.692;9.400;2023-08-24T00:42:40;96763.75;;;23.12;79.65
28927;BME280;16038;47.692;9.400;2023-08-24T00:45:07;96765.72;;;23.12;79.84
28927;BME280;16038;47.692;9.400;2023-08-24T00:47:34;96764.31;;;23.07;80.27
28927;BME280;16038;47.692;9.400;2023-08-24T00:50:00;96772.34;;;23.05;80.28
28927;BME280;16038;47.692;9.400;2023-08-24T00:52:28;96768.66;;;23.08;80.43
28927;BME280;16038;47.692;9.400;2023-08-24T00:54:54;96762.03;;;23.02;80.84
28927;BME280;16038;47.692;9.400;2023-08-24T00:57:20;96762.06;;;22.89;81.61
28927;BME280;16038;47.692;9.400;2023-08-24T00:59:46;96760.69;;;22.81;82.25
28927;BME280;16038;47.692;9.400;2023-08-24T01:02:12;96757.91;;;22.94;81.69
28927;BME280;16038;47.692;9.400;2023-08-24T01:04:41;96762.94;;;22.86;82.34
28927;BME280;16038;47.692;9.400;2023-08-24T01:07:06;96754.78;;;22.79;82.64
28927;BME280;16038;47.692;9.400;2023-08-24T01:09:33;96764.03;;;22.76;83.35
28927;BME280;16038;47.692;9.400;2023-08-24T01:12:11;96763.81;;;22.70;83.62
28927;BME280;16038;47.692;9.400;2023-08-24T01:15:00;96766.72;;;22.66;83.97
28927;BME280;16038;47.692;9.400;2023-08-24T01:17:30;96762.59;;;22.58;84.47
28927;BME280;16038;47.692;9.400;2023-08-24T01:19:57;96762.72;;;22.55;85.01
28927;BME280;16038;47.692;9.400;2023-08-24T01:27:34;96760.34;;;22.53;85.92
28927;BME280;16038;47.692;9.400;2023-08-24T01:30:01;96753.44;;;22.58;85.75
28927;BME280;16038;47.692;9.400;2023-08-24T01:32:30;96752.00;;;22.53;86.40
28927;BME280;16038;47.692;9.400;2023-08-24T01:34:55;96748.41;;;22.52;86.81
28927;BME280;16038;47.692;9.400;2023-08-24T01:37:21;96751.28;;;22.49;87.29
28927;BME280;16038;47.692;9.400;2023-08-24T01:39:56;96741.59;;;22.53;88.21
28927;BME280;16038;47.692;9.400;2023-08-24T01:42:29;96737.00;;;22.60;87.36
28927;BME280;16038;47.692;9.400;2023-08-24T01:44:57;96742.03;;;22.65;87.99
28927;BME280;16038;47.692;9.400;2023-08-24T01:47:25;96737.91;;;22.69;86.97
28927;BME280;16038;47.692;9.400;2023-08-24T01:49:52;96742.84;;;22.65;87.30
28927;BME280;16038;47.692;9.400;2023-08-24T01:52:17;96736.56;;;22.61;87.58
28927;BME280;16038;47.692;9.400;2023-08-24T01:54:43;96735.47;;;22.59;87.72
28927;BME280;16038;47.692;9.400;2023-08-24T01:57:10;96734.47;;;22.65;87.84
28927;BME280;16038;47.692;9.400;2023-08-24T01:59:35;96732.34;;;22.57;88.06
28927;BME280;16038;47.692;9.400;2023-08-24T02:02:01;96730.97;;;22.36;88.88
28927;BME280;16038;47.692;9.400;2023-08-24T02:04:26;96720.66;;;22.20;89.91
28927;BME280;16038;47.692;9.400;2023-08-24T02:06:51;96720.63;;;22.07;91.33
28927;BME280;16038;47.692;9.400;2023-08-24T02:09:17;96715.69;;;21.98;91.90
28927;BME280;16038;47.692;9.400;2023-08-24T02:11:42;96722.81;;;21.86;92.59
28927;BME280;16038;47.692;9.400;2023-08-24T02:14:07;96717.88;;;21.77;93.00
28927;BME280;16038;47.692;9.400;2023-08-24T02:16:33;96713.59;;;21.73;93.80
28927;BME280;16038;47.692;9.400;2023-08-24T02:21:23;96707.13;;;21.63;94.10
28927;BME280;16038;47.692;9.400;2023-08-24T02:26:14;96694.00;;;21.76;94.69
28927;BME280;16038;47.692;9.400;2023-08-24T02:28:39;96680.56;;;21.88;95.02
28927;BME280;16038;47.692;9.400;2023-08-24T02:31:05;96676.88;;;21.91;95.60
28927;BME280;16038;47.692;9.400;2023-08-24T02:33:31;96677.91;;;21.97;95.71
28927;BME280;16038;47.692;9.400;2023-08-24T02:35:57;96673.97;;;21.94;96.06
28927;BME280;16038;47.692;9.400;2023-08-24T02:38:23;96666.94;;;21.90;96.59
28927;BME280;16038;47.692;9.400;2023-08-24T02:40:49;96671.81;;;21.86;97.22
28927;BME280;16038;47.692;9.400;2023-08-24T02:43:14;96663.78;;;21.75;98.10
28927;BME280;16038;47.692;9.400;2023-08-24T02:45:39;96668.63;;;21.58;99.22
28927;BME280;16038;47.692;9.400;2023-08-24T02:48:05;96668.16;;;21.47;100.00
28927;BME280;16038;47.692;9.400;2023-08-24T02:50:30;96668.41;;;21.36;100.00
28927;BME280;16038;47.692;9.400;2023-08-24T02:52:56;96666.53;;;21.16;100.00
28927;BME280;16038;47.692;9.400;2023-08-24T02:55:24;96662.47;;;21.05;100.00
28927;BME280;16038;47.692;9.400;2023-08-24T02:57:49;96663.78;;;21.00;100.00
28927;BME280;16038;47.692;9.400;2023-08-24T03:00:14;96667.50;;;21.10;100.00
28927;BME280;16038;47.692;9.400;2023-08-24T03:02:40;96660.81;;;21.07;100.00
28927;BME280;16038;47.692;9.400;2023-08-24T03:05:05;96667.44;;;20.80;100.00
28927;BME280;16038;47.692;9.400;2023-08-24T03:07:31;96665.19;;;20.75;100.00
28927;BME280;16038;47.692;9.400;2023-08-24T03:09:57;96664.59;;;20.68;100.00
28927;BME280;16038;47.692;9.400;2023-08-24T03:12:22;96665.16;;;20.59;100.00
28927;BME280;16038;47.692;9.400;2023-08-24T03:14:51;96651.66;;;20.57;100.00
28927;BME280;16038;47.692;9.400;2023-08-24T03:17:17;96657.53;;;20.63;100.00
28927;BME280;16038;47.692;9.400;2023-08-24T03:19:42;96659.97;;;20.77;100.00
28927;BME280;16038;47.692;9.400;2023-08-24T03:22:08;96658.41;;;20.93;100.00
28927;BME280;16038;47.692;9.400;2023-08-24T03:24:33;96653.69;;;20.90;100.00
28927;BME280;16038;47.692;9.400;2023-08-24T03:26:58;96658.91;;;20.88;100.00
28927;BME280;16038;47.692;9.400;2023-08-24T03:29:24;96658.91;;;20.88;100.00
28927;BME280;16038;47.692;9.400;2023-08-24T03:31:49;96659.78;;;20.85;100.00
28927;BME280;16038;47.692;9.400;2023-08-24T03:34:15;96659.00;;;20.84;100.00
28927;BME280;16038;47.692;9.400;2023-08-24T03:36:40;96661.88;;;20.80;100.00
28927;BME280;16038;47.692;9.400;2023-08-24T03:39:06;96662.16;;;20.70;100.00
28927;BME280;16038;47.692;9.400;2023-08-24T03:41:31;96656.13;;;20.55;100.00
28927;BME280;16038;47.692;9.400;2023-08-24T03:43:57;96668.78;;;20.56;100.00
28927;BME280;16038;47.692;9.400;2023-08-24T03:46:22;96662.75;;;20.61;100.00
28927;BME280;16038;47.692;9.400;2023-08-24T03:48:47;96664.25;;;20.66;100.00
28927;BME280;16038;47.692;9.400;2023-08-24T03:51:13;96660.78;;;20.58;100.00
28927;BME280;16038;47.692;9.400;2023-08-24T03:53:38;96661.34;;;20.53;100.00
28927;BME280;16038;47.692;9.400;2023-08-24T03:56:04;96657.16;;;20.44;100.00
28927;BME280;16038;47.692;9.400;2023-08-24T03:58:29;96660.28;;;20.47;100.00
28927;BME280;16038;47.692;9.400;2023-08-24T04:00:54;96662.44;;;20.39;100.00
28927;BME280;16038;47.692;9.400;2023-08-24T04:03:20;96662.75;;;20.08;100.00
28927;BME280;16038;47.692;9.400;2023-08-24T04:05:46;96664.31;;;19.89;100.00
28927;BME280;16038;47.692;9.400;2023-08-24T04:08:11;96666.63;;;19.74;100.00
28927;BME280;16038;47.692;9.400;2023-08-24T04:10:37;96661.75;;;19.78;100.00
28927;BME280;16038;47.692;9.400;2023-08-24T04:13:03;96655.91;;;19.93;100.00
28927;BME280;16038;47.692;9.400;2023-08-24T04:15:28;96662.03;;;19.64;100.00
28927;BME280;16038;47.692;9.400;2023-08-24T04:17:53;96656.31;;;19.31;100.00
28927;BME280;16038;47.692;9.400;2023-08-24T04:20:19;96658.28;;;19.10;100.00
28927;BME280;16038;47.692;9.400;2023-08-24T04:22:45;96658.78;;;19.05;100.00
28927;BME280;16038;47.692;9.400;2023-08-24T04:25:10;96647.56;;;19.13;100.00
28927;BME280;16038;47.692;9.400;2023-08-24T04:27:36;96658.88;;;19.22;100.00
28927;BME280;16038;47.692;9.400;2023-08-24T04:30:02;96655.06;;;19.12;100.00
28927;BME280;16038;47.692;9.400;2023-08-24T04:32:28;96649.66;;;19.05;100.00
28927;BME280;16038;47.692;9.400;2023-08-24T04:34:54;96653.66;;;19.04;100.00
28927;BME280;16038;47.692;9.400;2023-08-24T04:37:19;96648.09;;;19.04;100.00
28927;BME280;16038;47.692;9.400;2023-08-24T04:39:45;96647.38;;;19.00;100.00
28927;BME280;16038;47.692;9.400;2023-08-24T04:42:10;96645.94;;;18.91;100.00
28927;BME280;16038;47.692;9.400;2023-08-24T04:44:36;96650.41;;;18.85;100.00
28927;BME280;16038;47.692;9.400;2023-08-24T04:47:02;96644.75;;;18.93;100.00
28927;BME280;16038;47.692;9.400;2023-08-24T04:49:30;96639.03;;;19.23;100.00
28927;BME280;16038;47.692;9.400;2023-08-24T04:51:55;96644.81;;;19.53;100.00
28927;BME280;16038;47.692;9.400;2023-08-24T04:54:21;96647.03;;;19.81;100.00
28927;BME280;16038;47.692;9.400;2023-08-24T04:56:46;96649.25;;;20.07;100.00
28927;BME280;16038;47.692;9.400;2023-08-24T04:59:12;96651.38;;;20.19;100.00
28927;BME280;16038;47.692;9.400;2023-08-24T05:01:37;96651.91;;;20.30;100.00
28927;BME280;16038;47.692;9.400;2023-08-24T05:04:03;96650.09;;;20.40;100.00
28927;BME280;16038;47.692;9.400;2023-08-24T05:06:28;96655.66;;;20.40;100.00
28927;BME280;16038;47.692;9.400;2023-08-24T05:08:54;96660.44;;;20.56;100.00
28927;BME280;16038;47.692;9.400;2023-08-24T05:11:27;96654.31;;;20.81;100.00
28927;BME280;16038;47.692;9.400;2023-08-24T05:13:56;96649.25;;;20.76;100.00
28927;BME280;16038;47.692;9.400;2023-08-24T05:16:21;96638.47;;;20.61;100.00
28927;BME280;16038;47.692;9.400;2023-08-24T05:18:47;96646.53;;;20.56;100.00
28927;BME280;16038;47.692;9.400;2023-08-24T05:21:12;96653.25;;;21.08;100.00
28927;BME280;16038;47.692;9.400;2023-08-24T05:23:38;96652.72;;;21.71;100.00
28927;BME280;16038;47.692;9.400;2023-08-24T05:26:03;96650.72;;;22.27;100.00
28927;BME280;16038;47.692;9.400;2023-08-24T05:28:30;96654.59;;;22.81;100.00
28927;BME280;16038;47.692;9.400;2023-08-24T05:30:56;96650.81;;;22.23;100.00
28927;BME280;16038;47.692;9.400;2023-08-24T05:33:22;96652.97;;;22.45;100.00
28927;BME280;16038;47.692;9.400;2023-08-24T05:35:49;96655.91;;;23.15;96.95
28927;BME280;16038;47.692;9.400;2023-08-24T05:38:15;96661.06;;;23.60;92.31
28927;BME280;16038;47.692;9.400;2023-08-24T05:40:47;96666.41;;;23.67;90.68
28927;BME280;16038;47.692;9.400;2023-08-24T05:43:13;96660.41;;;23.78;90.57
28927;BME280;16038;47.692;9.400;2023-08-24T05:45:38;96662.13;;;23.98;89.11
28927;BME280;16038;47.692;9.400;2023-08-24T05:48:09;96656.91;;;24.40;86.45
28927;BME280;16038;47.692;9.400;2023-08-24T05:50:35;96663.19;;;24.94;82.81
28927;BME280;16038;47.692;9.400;2023-08-24T05:53:03;96652.97;;;25.65;78.55
28927;BME280;16038;47.692;9.400;2023-08-24T05:55:28;96656.50;;;26.12;75.07
28927;BME280;16038;47.692;9.400;2023-08-24T05:57:54;96650.78;;;25.97;75.75
28927;BME280;16038;47.692;9.400;2023-08-24T06:00:19;96652.16;;;25.83;74.69
28927;BME280;16038;47.692;9.400;2023-08-24T06:02:47;96644.50;;;23.44;88.39
28927;BME280;16038;47.692;9.400;2023-08-24T06:05:12;96638.00;;;24.54;87.46
28927;BME280;16038;47.692;9.400;2023-08-24T06:07:38;96655.22;;;26.22;76.13
28927;BME280;16038;47.692;9.400;2023-08-24T06:10:03;96659.81;;;27.59;67.91
28927;BME280;16038;47.692;9.400;2023-08-24T06:12:29;96664.69;;;28.48;61.41
28927;BME280;16038;47.692;9.400;2023-08-24T06:14:54;96659.66;;;28.07;61.97
28927;BME280;16038;47.692;9.400;2023-08-24T06:17:20;96659.28;;;28.29;61.98
28927;BME280;16038;47.692;9.400;2023-08-24T06:19:45;96656.53;;;27.75;65.02
28927;BME280;16038;47.692;9.400;2023-08-24T06:22:10;96653.06;;;26.93;67.47
28927;BME280;16038;47.692;9.400;2023-08-24T06:24:36;96650.81;;;27.06;68.34
28927;BME280;16038;47.692;9.400;2023-08-24T06:27:01;96634.22;;;26.08;72.08
28927;BME280;16038;47.692;9.400;2023-08-24T06:29:28;96630.91;;;26.62;72.95
28927;BME280;16038;47.692;9.400;2023-08-24T06:31:54;96625.31;;;26.86;71.75
28927;BME280;16038;47.692;9.400;2023-08-24T06:34:20;96638.75;;;25.87;74.84
28927;BME280;16038;47.692;9.400;2023-08-24T06:36:45;96632.38;;;25.87;74.03
28927;BME280;16038;47.692;9.400;2023-08-24T06:39:10;96639.47;;;26.67;70.13
28927;BME280;16038;47.692;9.400;2023-08-24T06:41:36;96639.00;;;26.60;69.98
28927;BME280;16038;47.692;9.400;2023-08-24T06:44:02;96637.53;;;25.51;74.55
28927;BME280;16038;47.692;9.400;2023-08-24T06:46:28;96639.78;;;26.18;72.16
28927;BME280;16038;47.692;9.400;2023-08-24T06:48:54;96634.97;;;26.18;69.81
28927;BME280;16038;47.692;9.400;2023-08-24T06:51:19;96642.13;;;27.19;66.76
28927;BME280;16038;47.692;9.400;2023-08-24T06:53:44;96645.25;;;26.64;68.09
28927;BME280;16038;47.692;9.400;2023-08-24T06:56:12;96644.81;;;26.47;69.61
28927;BME280;16038;47.692;9.400;2023-08-24T06:58:39;96650.53;;;28.42;61.53
28927;BME280;16038;47.692;9.400;2023-08-24T07:01:04;96657.84;;;28.04;61.79
28927;BME280;16038;47.692;9.400;2023-08-24T07:03:32;96650.31;;;29.78;55.67
28927;BME280;16038;47.692;9.400;2023-08-24T07:06:00;96658.09;;;29.42;56.23
28927;BME280;16038;47.692;9.400;2023-08-24T07:08:25;96650.25;;;28.25;60.14
28927;BME280;16038;47.692;9.400;2023-08-24T07:10:51;96646.44;;;29.76;55.72
28927;BME280;16038;47.692;9.400;2023-08-24T07:13:16;96650.81;;;31.53;51.34
28927;BME280;16038;47.692;9.400;2023-08-24T07:15:42;96662.81;;;32.98;45.20
28927;BME280;16038;47.692;9.400;2023-08-24T07:18:07;96664.88;;;33.79;43.12
28927;BME280;16038;47.692;9.400;2023-08-24T07:20:34;96656.84;;;31.89;46.65
28927;BME280;16038;47.692;9.400;2023-08-24T07:23:00;96656.78;;;31.55;49.11
28927;BME280;16038;47.692;9.400;2023-08-24T07:25:26;96661.84;;;32.67;46.31
28927;BME280;16038;47.692;9.400;2023-08-24T07:27:53;96659.16;;;33.20;44.92
28927;BME280;16038;47.692;9.400;2023-08-24T07:30:23;96650.63;;;31.13;48.51
28927;BME280;16038;47.692;9.400;2023-08-24T07:32:48;96646.47;;;30.97;50.75
28927;BME280;16038;47.692;9.400;2023-08-24T07:35:13;96649.63;;;33.18;45.64
28927;BME280;16038;47.692;9.400;2023-08-24T07:37:39;96654.47;;;33.93;42.23
28927;BME280;16038;47.692;9.400;2023-08-24T07:40:05;96653.75;;;35.08;41.27
28927;BME280;16038;47.692;9.400;2023-08-24T07:42:43;96652.09;;;33.44;42.89
28927;BME280;16038;47.692;9.400;2023-08-24T07:45:08;96647.66;;;32.28;44.83
28927;BME280;16038;47.692;9.400;2023-08-24T07:47:34;96635.16;;;31.57;47.16
28927;BME280;16038;47.692;9.400;2023-08-24T07:49:59;96641.94;;;32.84;44.08
28927;BME280;16038;47.692;9.400;2023-08-24T07:52:24;96639.19;;;33.48;43.10
28927;BME280;16038;47.692;9.400;2023-08-24T07:54:52;96642.66;;;33.24;43.40
28927;BME280;16038;47.692;9.400;2023-08-24T07:57:17;96647.28;;;34.58;40.42
28927;BME280;16038;47.692;9.400;2023-08-24T07:59:43;96652.06;;;35.86;38.10
28927;BME280;16038;47.692;9.400;2023-08-24T08:02:08;96662.06;;;35.74;37.73
28927;BME280;16038;47.692;9.400;2023-08-24T08:04:34;96665.00;;;36.25;36.51
28927;BME280;16038;47.692;9.400;2023-08-24T08:07:00;96667.56;;;35.91;36.56
28927;BME280;16038;47.692;9.400;2023-08-24T08:09:25;96668.06;;;37.05;35.54
28927;BME280;16038;47.692;9.400;2023-08-24T08:11:50;96675.16;;;36.85;35.06
28927;BME280;16038;47.692;9.400;2023-08-24T08:14:16;96674.22;;;36.64;35.80
28927;BME280;16038;47.692;9.400;2023-08-24T08:16:42;96666.19;;;37.08;35.03
28927;BME280;16038;47.692;9.400;2023-08-24T08:19:07;96651.75;;;33.64;40.38
28927;BME280;16038;47.692;9.400;2023-08-24T08:21:33;96661.72;;;34.60;39.91
28927;BME280;16038;47.692;9.400;2023-08-24T08:23:58;96661.38;;;35.87;37.48
28927;BME280;16038;47.692;9.400;2023-08-24T08:26:23;96666.59;;;34.35;39.60
28927;BME280;16038;47.692;9.400;2023-08-24T08:28:49;96647.84;;;32.01;44.44
28927;BME280;16038;47.692;9.400;2023-08-24T08:31:15;96655.28;;;33.12;42.95
28927;BME280;16038;47.692;9.400;2023-08-24T08:33:40;96647.91;;;33.67;41.59
28927;BME280;16038;47.692;9.400;2023-08-24T08:36:05;96654.59;;;33.64;42.68
28927;BME280;16038;47.692;9.400;2023-08-24T08:38:31;96661.09;;;35.71;38.07
28927;BME280;16038;47.692;9.400;2023-08-24T08:41:02;96664.88;;;35.36;38.76
28927;BME280;16038;47.692;9.400;2023-08-24T08:43:28;96665.22;;;36.27;36.97
28927;BME280;16038;47.692;9.400;2023-08-24T08:45:55;96678.47;;;36.89;35.71
28927;BME280;16038;47.692;9.400;2023-08-24T08:48:21;96681.34;;;37.03;35.34
28927;BME280;16038;47.692;9.400;2023-08-24T08:50:49;96688.06;;;37.72;34.22
28927;BME280;16038;47.692;9.400;2023-08-24T08:53:15;96683.78;;;37.39;34.84
28927;BME280;16038;47.692;9.400;2023-08-24T08:55:41;96686.22;;;38.09;33.50
28927;BME280;16038;47.692;9.400;2023-08-24T08:58:06;96674.91;;;37.16;34.26
28927;BME280;16038;47.692;9.400;2023-08-24T09:00:33;96660.53;;;36.11;35.82
28927;BME280;16038;47.692;9.400;2023-08-24T09:02:59;96672.09;;;36.83;35.36
28927;BME280;16038;47.692;9.400;2023-08-24T09:05:25;96676.13;;;36.74;35.70
28927;BME280;16038;47.692;9.400;2023-08-24T09:07:53;96674.78;;;37.35;33.95
28927;BME280;16038;47.692;9.400;2023-08-24T09:10:19;96677.91;;;36.78;34.07
28927;BME280;16038;47.692;9.400;2023-08-24T09:12:45;96663.44;;;36.89;34.37
28927;BME280;16038;47.692;9.400;2023-08-24T09:15:10;96662.88;;;37.04;34.07
28927;BME280;16038;47.692;9.400;2023-08-24T09:17:41;96668.75;;;37.25;33.70
28927;BME280;16038;47.692;9.400;2023-08-24T09:20:08;96657.81;;;36.18;34.57
28927;BME280;16038;47.692;9.400;2023-08-24T09:22:35;96661.69;;;36.21;35.78
28927;BME280;16038;47.692;9.400;2023-08-24T09:25:02;96653.00;;;35.75;35.54
28927;BME280;16038;47.692;9.400;2023-08-24T09:27:29;96643.91;;;35.77;35.75
28927;BME280;16038;47.692;9.400;2023-08-24T09:29:54;96649.16;;;35.73;35.52
28927;BME280;16038;47.692;9.400;2023-08-24T09:32:38;96638.53;;;34.80;37.20
28927;BME280;16038;47.692;9.400;2023-08-24T09:35:08;96638.88;;;36.02;34.95
28927;BME280;16038;47.692;9.400;2023-08-24T09:37:34;96644.25;;;36.57;33.89
28927;BME280;16038;47.692;9.400;2023-08-24T09:40:05;96629.38;;;36.32;35.74
28927;BME280;16038;47.692;9.400;2023-08-24T09:42:43;96623.34;;;35.84;37.70
28927;BME280;16038;47.692;9.400;2023-08-24T09:45:12;96617.03;;;35.53;38.24
28927;BME280;16038;47.692;9.400;2023-08-24T09:47:38;96607.88;;;35.60;39.01
28927;BME280;16038;47.692;9.400;2023-08-24T09:50:04;96606.16;;;35.33;39.25
28927;BME280;16038;47.692;9.400;2023-08-24T09:52:34;96607.16;;;35.35;39.69
28927;BME280;16038;47.692;9.400;2023-08-24T09:55:05;96608.34;;;35.46;39.36
28927;BME280;16038;47.692;9.400;2023-08-24T09:57:40;96605.78;;;35.61;39.22
28927;BME280;16038;47.692;9.400;2023-08-24T10:00:07;96604.94;;;35.66;39.21
28927;BME280;16038;47.692;9.400;2023-08-24T10:02:37;96612.88;;;35.73;39.22
28927;BME280;16038;47.692;9.400;2023-08-24T10:05:05;96609.41;;;36.32;37.52
28927;BME280;16038;47.692;9.400;2023-08-24T10:07:32;96609.63;;;36.02;38.10
28927;BME280;16038;47.692;9.400;2023-08-24T10:10:03;96597.38;;;35.69;38.37
28927;BME280;16038;47.692;9.400;2023-08-24T10:12:31;96594.91;;;35.59;39.45
28927;BME280;16038;47.692;9.400;2023-08-24T10:15:01;96599.00;;;35.26;39.49
28927;BME280;16038;47.692;9.400;2023-08-24T10:17:32;96599.06;;;34.71;40.92
28927;BME280;16038;47.692;9.400;2023-08-24T10:20:01;96597.94;;;35.04;40.37
28927;BME280;16038;47.692;9.400;2023-08-24T10:22:30;96600.56;;;34.47;41.05
28927;BME280;16038;47.692;9.400;2023-08-24T10:24:56;96590.78;;;33.77;42.49
28927;BME280;16038;47.692;9.400;2023-08-24T10:27:27;96585.06;;;33.82;42.14
28927;BME280;16038;47.692;9.400;2023-08-24T10:29:52;96579.72;;;33.62;42.68
28927;BME280;16038;47.692;9.400;2023-08-24T10:32:19;96572.63;;;33.44;42.76
28927;BME280;16038;47.692;9.400;2023-08-24T10:34:46;96569.47;;;32.94;43.92
28927;BME280;16038;47.692;9.400;2023-08-24T10:37:12;96571.72;;;33.07;43.73
28927;BME280;16038;47.692;9.400;2023-08-24T10:39:44;96566.94;;;33.44;43.06
28927;BME280;16038;47.692;9.400;2023-08-24T10:42:11;96567.00;;;33.32;43.10
28927;BME280;16038;47.692;9.400;2023-08-24T10:44:39;96567.88;;;33.05;43.51
28927;BME280;16038;47.692;9.400;2023-08-24T10:47:12;96553.69;;;33.10;43.39
28927;BME280;16038;47.692;9.400;2023-08-24T10:49:39;96551.41;;;32.98;44.04
28927;BME280;16038;47.692;9.400;2023-08-24T10:54:43;96544.50;;;33.46;42.85
28927;BME280;16038;47.692;9.400;2023-08-24T10:57:26;96539.97;;;33.62;42.61
28927;BME280;16038;47.692;9.400;2023-08-24T11:00:09;96550.25;;;34.06;41.84
28927;BME280;16038;47.692;9.400;2023-08-24T11:07:50;96544.72;;;33.89;42.03
28927;BME280;16038;47.692;9.400;2023-08-24T11:10:16;96543.38;;;33.55;42.23
28927;BME280;16038;47.692;9.400;2023-08-24T11:15:38;96526.91;;;33.47;43.48
28927;BME280;16038;47.692;9.400;2023-08-24T11:20:45;96528.19;;;33.52;42.69
28927;BME280;16038;47.692;9.400;2023-08-24T11:23:15;96516.78;;;33.10;44.05
28927;BME280;16038;47.692;9.400;2023-08-24T11:25:40;96510.09;;;33.08;43.63
28927;BME280;16038;47.692;9.400;2023-08-24T11:28:06;96508.19;;;32.74;44.84
28927;BME280;16038;47.692;9.400;2023-08-24T11:30:32;96505.56;;;32.82;45.05
28927;BME280;16038;47.692;9.400;2023-08-24T11:33:01;96503.31;;;32.64;46.27
28927;BME280;16038;47.692;9.400;2023-08-24T11:35:27;96494.59;;;32.50;46.11
28927;BME280;16038;47.692;9.400;2023-08-24T11:37:53;96497.63;;;32.69;45.55
28927;BME280;16038;47.692;9.400;2023-08-24T11:40:19;96495.84;;;32.55;46.10
28927;BME280;16038;47.692;9.400;2023-08-24T11:42:46;96493.69;;;32.89;44.86
28927;BME280;16038;47.692;9.400;2023-08-24T11:45:12;96499.56;;;32.97;44.57
28927;BME280;16038;47.692;9.400;2023-08-24T11:47:38;96486.66;;;33.02;44.16
28927;BME280;16038;47.692;9.400;2023-08-24T11:50:04;96491.00;;;33.08;44.60
28927;BME280;16038;47.692;9.400;2023-08-24T11:52:30;96489.69;;;33.21;44.06
28927;BME280;16038;47.692;9.400;2023-08-24T11:55:00;96493.34;;;33.16;43.71
28927;BME280;16038;47.692;9.400;2023-08-24T11:57:25;96491.31;;;33.46;43.64
28927;BME280;16038;47.692;9.400;2023-08-24T11:59:53;96491.41;;;33.29;43.45
28927;BME280;16038;47.692;9.400;2023-08-24T12:02:20;96484.94;;;33.34;42.69
28927;BME280;16038;47.692;9.400;2023-08-24T12:04:48;96480.63;;;33.64;42.42
28927;BME280;16038;47.692;9.400;2023-08-24T12:07:14;96481.88;;;33.68;42.92
28927;BME280;16038;47.692;9.400;2023-08-24T12:09:41;96479.28;;;33.70;42.73
28927;BME280;16038;47.692;9.400;2023-08-24T12:12:17;96483.75;;;33.55;43.18
28927;BME280;16038;47.692;9.400;2023-08-24T12:14:47;96480.06;;;33.29;43.02
28927;BME280;16038;47.692;9.400;2023-08-24T12:17:13;96476.22;;;33.27;43.37
28927;BME280;16038;47.692;9.400;2023-08-24T12:19:53;96475.00;;;33.11;43.92
28927;BME280;16038;47.692;9.400;2023-08-24T12:22:21;96463.38;;;32.67;45.01
28927;BME280;16038;47.692;9.400;2023-08-24T12:24:47;96461.06;;;32.54;45.46
28927;BME280;16038;47.692;9.400;2023-08-24T12:27:19;96456.81;;;33.37;43.24
28927;BME280;16038;47.692;9.400;2023-08-24T12:29:45;96453.38;;;33.49;43.09
28927;BME280;16038;47.692;9.400;2023-08-24T12:32:11;96450.78;;;33.51;43.48
28927;BME280;16038;47.692;9.400;2023-08-24T12:34:36;96457.94;;;33.58;43.36
28927;BME280;16038;47.692;9.400;2023-08-24T12:37:02;96436.94;;;33.37;43.99
28927;BME280;16038;47.692;9.400;2023-08-24T12:39:27;96438.91;;;33.17;44.96
28927;BME280;16038;47.692;9.400;2023-08-24T12:41:53;96440.78;;;32.98;45.97
28927;BME280;16038;47.692;9.400;2023-08-24T12:44:18;96427.13;;;32.32;47.26
28927;BME280;16038;47.692;9.400;2023-08-24T12:46:43;96435.63;;;32.32;48.64
28927;BME280;16038;47.692;9.400;2023-08-24T12:49:09;96423.81;;;32.22;49.10
28927;BME280;16038;47.692;9.400;2023-08-24T12:51:34;96422.78;;;32.19;50.45
28927;BME280;16038;47.692;9.400;2023-08-24T12:54:00;96426.69;;;32.11;50.61
28927;BME280;16038;47.692;9.400;2023-08-24T12:56:25;96418.72;;;31.87;49.94
28927;BME280;16038;47.692;9.400;2023-08-24T12:58:51;96425.66;;;31.80;50.18
28927;BME280;16038;47.692;9.400;2023-08-24T13:01:16;96417.19;;;31.74;51.67
28927;BME280;16038;47.692;9.400;2023-08-24T13:03:42;96412.31;;;31.63;53.35
28927;BME280;16038;47.692;9.400;2023-08-24T13:06:07;96404.53;;;31.92;51.94
28927;BME280;16038;47.692;9.400;2023-08-24T13:08:33;96395.53;;;32.11;51.16
28927;BME280;16038;47.692;9.400;2023-08-24T13:10:58;96392.44;;;32.14;52.72
28927;BME280;16038;47.692;9.400;2023-08-24T13:13:24;96390.91;;;31.85;52.04
28927;BME280;16038;47.692;9.400;2023-08-24T13:15:50;96379.13;;;31.64;56.16
28927;BME280;16038;47.692;9.400;2023-08-24T13:18:16;96379.38;;;31.43;55.92